createdAt,value
2018-02-18T00:00:16.479Z,19.25
2018-02-18T00:01:16.364Z,19.25
2018-02-18T00:02:16.373Z,19.25
2018-02-18T00:03:16.359Z,19.25
2018-02-18T00:04:16.345Z,19.25
2018-02-18T00:05:16.368Z,19.25
2018-02-18T00:06:16.340Z,19.25
2018-02-18T00:07:16.340Z,19.25
2018-02-18T00:08:16.451Z,19.25
2018-02-18T00:09:16.376Z,19.25
2018-02-18T00:10:16.362Z,19.25
2018-02-18T00:11:16.353Z,19.25
2018-02-18T00:12:16.366Z,19.25
2018-02-18T00:13:16.347Z,19.25
2018-02-18T00:14:16.337Z,19.25
2018-02-18T00:15:16.347Z,19.25
2018-02-18T00:16:16.441Z,19.25
2018-02-18T00:17:16.352Z,19.25
2018-02-18T00:18:16.352Z,19.25
2018-02-18T00:19:16.383Z,19.25
2018-02-18T00:20:16.334Z,19.25
2018-02-18T00:21:16.348Z,19.25
2018-02-18T00:22:16.341Z,19.25
2018-02-18T00:23:16.347Z,19.25
2018-02-18T00:24:16.390Z,19.25
2018-02-18T00:25:16.346Z,19.25
2018-02-18T00:26:16.333Z,19.25
2018-02-18T00:27:16.336Z,19.25
2018-02-18T00:28:16.343Z,19.25
2018-02-18T00:29:16.337Z,19.25
2018-02-18T00:30:16.344Z,19.25
2018-02-18T00:31:16.331Z,19.25
2018-02-18T00:32:16.330Z,19.25
2018-02-18T00:33:16.348Z,19
2018-02-18T00:34:16.356Z,19
2018-02-18T00:35:16.332Z,19
2018-02-18T00:36:16.365Z,19
2018-02-18T00:37:16.335Z,19
2018-02-18T00:38:16.345Z,19
2018-02-18T00:39:16.349Z,19
2018-02-18T00:40:16.350Z,19
2018-02-18T00:41:16.364Z,19
2018-02-18T00:42:16.341Z,19
2018-02-18T00:43:16.355Z,19
2018-02-18T00:44:16.325Z,19
2018-02-18T00:45:16.345Z,19
2018-02-18T00:46:16.337Z,19
2018-02-18T00:47:16.373Z,19
2018-02-18T00:48:16.329Z,19
2018-02-18T00:49:16.392Z,19
2018-02-18T00:50:16.355Z,19
2018-02-18T00:51:16.330Z,19
2018-02-18T00:52:16.368Z,19
2018-02-18T00:53:16.321Z,19
2018-02-18T00:54:16.346Z,19
2018-02-18T00:55:16.330Z,19
2018-02-18T00:56:16.334Z,19
2018-02-18T00:57:16.324Z,19
2018-02-18T00:58:16.366Z,19
2018-02-18T00:59:16.352Z,19
2018-02-18T01:00:16.332Z,19
2018-02-18T01:01:16.346Z,19
2018-02-18T01:02:16.316Z,19
2018-02-18T01:03:16.337Z,19
2018-02-18T01:04:16.505Z,19
2018-02-18T01:05:16.325Z,19
2018-02-18T01:06:16.333Z,19
2018-02-18T01:07:16.364Z,19
2018-02-18T01:08:16.341Z,19
2018-02-18T01:09:16.353Z,19
2018-02-18T01:10:16.315Z,19
2018-02-18T01:11:16.336Z,19
2018-02-18T01:12:16.316Z,19
2018-02-18T01:13:16.322Z,19
2018-02-18T01:14:16.322Z,19
2018-02-18T01:15:16.338Z,19
2018-02-18T01:16:16.324Z,19
2018-02-18T01:17:16.335Z,19
2018-02-18T01:18:16.338Z,19
2018-02-18T01:19:16.318Z,18.75
2018-02-18T01:20:16.589Z,18.75
2018-02-18T01:21:16.420Z,18.75
2018-02-18T01:22:16.320Z,19
2018-02-18T01:23:16.290Z,18.75
2018-02-18T01:24:16.316Z,18.75
2018-02-18T01:25:16.350Z,18.75
2018-02-18T01:26:16.332Z,18.75
2018-02-18T01:27:16.307Z,18.75
2018-02-18T01:28:16.327Z,18.75
2018-02-18T01:29:16.319Z,18.75
2018-02-18T01:30:16.329Z,18.75
2018-02-18T01:31:16.333Z,18.75
2018-02-18T01:32:16.347Z,18.75
2018-02-18T01:33:16.309Z,18.75
2018-02-18T01:34:16.315Z,18.75
2018-02-18T01:35:16.332Z,18.75
2018-02-18T01:36:16.354Z,18.75
2018-02-18T01:37:16.315Z,18.75
2018-02-18T01:38:16.322Z,18.75
2018-02-18T01:39:16.325Z,18.75
2018-02-18T01:40:16.315Z,18.75
2018-02-18T01:41:16.356Z,18.75
2018-02-18T01:42:16.349Z,18.75
2018-02-18T01:43:16.305Z,18.75
2018-02-18T01:44:16.334Z,18.75
2018-02-18T01:45:16.329Z,18.75
2018-02-18T01:46:16.306Z,18.75
2018-02-18T01:47:16.317Z,18.75
2018-02-18T01:48:16.318Z,18.75
2018-02-18T01:49:16.318Z,18.75
2018-02-18T01:50:16.306Z,18.75
2018-02-18T01:51:16.320Z,18.75
2018-02-18T01:52:16.355Z,18.75
2018-02-18T01:53:16.309Z,18.75
2018-02-18T01:54:16.325Z,18.75
2018-02-18T01:55:16.316Z,18.75
2018-02-18T01:56:16.312Z,18.75
2018-02-18T01:57:16.313Z,18.75
2018-02-18T01:58:16.306Z,18.75
2018-02-18T01:59:16.302Z,18.75
2018-02-18T02:00:16.316Z,18.75
2018-02-18T02:01:16.310Z,18.75
2018-02-18T02:02:16.418Z,18.75
2018-02-18T02:03:16.311Z,18.75
2018-02-18T02:04:16.309Z,18.75
2018-02-18T02:05:16.306Z,18.75
2018-02-18T02:06:16.316Z,18.75
2018-02-18T02:07:16.309Z,18.75
2018-02-18T02:08:16.297Z,18.75
2018-02-18T02:09:16.312Z,18.75
2018-02-18T02:10:16.316Z,18.75
2018-02-18T02:11:16.301Z,18.75
2018-02-18T02:12:16.314Z,18.75
2018-02-18T02:13:16.304Z,18.75
2018-02-18T02:14:16.311Z,18.75
2018-02-18T02:15:16.299Z,18.5
2018-02-18T02:16:16.313Z,18.75
2018-02-18T02:17:16.324Z,18.5
2018-02-18T02:18:16.351Z,18.5
2018-02-18T02:19:16.301Z,18.75
2018-02-18T02:20:16.317Z,18.5
2018-02-18T02:21:16.303Z,18.5
2018-02-18T02:22:16.321Z,18.5
2018-02-18T02:23:16.312Z,18.5
2018-02-18T02:24:16.298Z,18.5
2018-02-18T02:25:16.304Z,18.5
2018-02-18T02:26:16.303Z,18.5
2018-02-18T02:27:16.298Z,18.5
2018-02-18T02:28:16.298Z,18.5
2018-02-18T02:29:16.305Z,18.5
2018-02-18T02:30:16.304Z,18.5
2018-02-18T02:31:16.334Z,18.5
2018-02-18T02:32:16.307Z,18.5
2018-02-18T02:33:16.325Z,18.5
2018-02-18T02:34:16.353Z,18.5
2018-02-18T02:35:16.303Z,18.5
2018-02-18T02:36:16.300Z,18.5
2018-02-18T02:37:16.295Z,18.5
2018-02-18T02:38:16.302Z,18.5
2018-02-18T02:39:16.295Z,18.5
2018-02-18T02:40:16.307Z,18.5
2018-02-18T02:41:16.305Z,18.5
2018-02-18T02:42:16.299Z,18.5
2018-02-18T02:43:16.301Z,18.5
2018-02-18T02:44:16.326Z,18.5
2018-02-18T02:45:16.311Z,18.5
2018-02-18T02:46:16.313Z,18.5
2018-02-18T02:47:16.303Z,18.5
2018-02-18T02:48:16.285Z,18.5
2018-02-18T02:49:16.162Z,18.5
2018-02-18T02:50:16.299Z,18.5
2018-02-18T02:51:16.304Z,18.5
2018-02-18T02:52:16.533Z,18.5
2018-02-18T02:53:16.320Z,18.5
2018-02-18T02:54:16.291Z,18.5
2018-02-18T02:55:16.293Z,18.5
2018-02-18T02:56:16.300Z,18.5
2018-02-18T02:57:16.300Z,18.5
2018-02-18T02:58:16.348Z,18.5
2018-02-18T02:59:16.282Z,18.5
2018-02-18T03:00:16.334Z,18.5
2018-02-18T03:01:16.298Z,18.5
2018-02-18T03:02:16.321Z,18.5
2018-02-18T03:03:16.657Z,18.5
2018-02-18T03:04:16.295Z,18.5
2018-02-18T03:05:16.282Z,18.5
2018-02-18T03:06:16.272Z,18.5
2018-02-18T03:07:16.283Z,18.5
2018-02-18T03:08:16.294Z,18.5
2018-02-18T03:09:16.282Z,18.5
2018-02-18T03:10:16.272Z,18.5
2018-02-18T03:11:16.284Z,18.5
2018-02-18T03:12:16.289Z,18.5
2018-02-18T03:13:16.301Z,18.5
2018-02-18T03:14:16.287Z,18.5
2018-02-18T03:15:16.274Z,18.5
2018-02-18T03:16:16.288Z,18.5
2018-02-18T03:17:16.288Z,18.5
2018-02-18T03:18:16.304Z,18.5
2018-02-18T03:19:16.304Z,18.5
2018-02-18T03:20:16.297Z,18.5
2018-02-18T03:21:16.414Z,18.5
2018-02-18T03:22:16.284Z,18.5
2018-02-18T03:23:16.299Z,18.5
2018-02-18T03:24:16.270Z,18.5
2018-02-18T03:25:16.297Z,18.5
2018-02-18T03:26:16.275Z,18.5
2018-02-18T03:27:16.272Z,18.25
2018-02-18T03:28:16.333Z,18.5
2018-02-18T03:29:16.287Z,18.25
2018-02-18T03:30:16.256Z,18.5
2018-02-18T03:31:16.286Z,18.5
2018-02-18T03:32:16.285Z,18.25
2018-02-18T03:33:16.301Z,18.25
2018-02-18T03:34:16.301Z,18.25
2018-02-18T03:35:16.271Z,18.25
2018-02-18T03:36:16.274Z,18.25
2018-02-18T03:37:16.301Z,18.25
2018-02-18T03:38:16.298Z,18.25
2018-02-18T03:39:16.297Z,18.25
2018-02-18T03:40:16.289Z,18.25
2018-02-18T03:41:16.273Z,18.25
2018-02-18T03:42:16.324Z,18.25
2018-02-18T03:43:16.266Z,18.25
2018-02-18T03:44:16.284Z,18.25
2018-02-18T03:45:16.350Z,18.25
2018-02-18T03:46:16.281Z,18.25
2018-02-18T03:47:16.279Z,18.25
2018-02-18T03:48:16.270Z,18.25
2018-02-18T03:49:16.268Z,18.25
2018-02-18T03:50:16.300Z,18.25
2018-02-18T03:51:16.262Z,18.25
2018-02-18T03:52:16.267Z,18.25
2018-02-18T03:53:16.280Z,18.25
2018-02-18T03:54:16.270Z,18.25
2018-02-18T03:55:16.273Z,18.25
2018-02-18T03:56:16.283Z,18.25
2018-02-18T03:57:16.268Z,18.25
2018-02-18T03:58:16.276Z,18.25
2018-02-18T03:59:16.268Z,18.25
2018-02-18T04:00:16.317Z,18.25
2018-02-18T04:01:16.289Z,18.25
2018-02-18T04:02:16.291Z,18.25
2018-02-18T04:03:16.265Z,18.25
2018-02-18T04:04:16.268Z,18.25
2018-02-18T04:05:16.263Z,18.25
2018-02-18T04:06:16.265Z,18.25
2018-02-18T04:07:16.279Z,18.25
2018-02-18T04:08:16.269Z,18.25
2018-02-18T04:09:16.272Z,18.25
2018-02-18T04:10:16.276Z,18.25
2018-02-18T04:11:16.275Z,18.25
2018-02-18T04:12:16.261Z,18.25
2018-02-18T04:13:16.258Z,18.25
2018-02-18T04:14:16.305Z,18.25
2018-02-18T04:15:16.356Z,18.25
2018-02-18T04:16:16.277Z,18.25
2018-02-18T04:17:16.254Z,18.25
2018-02-18T04:18:16.265Z,18.25
2018-02-18T04:19:16.266Z,18.25
2018-02-18T04:20:16.265Z,18.25
2018-02-18T04:21:16.271Z,18.25
2018-02-18T04:22:16.276Z,18.25
2018-02-18T04:23:16.256Z,18.25
2018-02-18T04:24:16.257Z,18.25
2018-02-18T04:25:16.257Z,18.25
2018-02-18T04:26:16.283Z,18.25
2018-02-18T04:27:16.284Z,18.25
2018-02-18T04:28:16.257Z,18.25
2018-02-18T04:29:16.273Z,18.25
2018-02-18T04:30:16.260Z,18.25
2018-02-18T04:31:16.310Z,18.25
2018-02-18T04:32:16.284Z,18.25
2018-02-18T04:33:16.265Z,18.25
2018-02-18T04:34:16.245Z,18.25
2018-02-18T04:35:16.258Z,18.25
2018-02-18T04:36:16.246Z,18.25
2018-02-18T04:37:16.309Z,18.25
2018-02-18T04:38:16.265Z,18.25
2018-02-18T04:39:16.256Z,18.25
2018-02-18T04:40:16.252Z,18.25
2018-02-18T04:41:16.276Z,18.25
2018-02-18T04:42:16.271Z,18.25
2018-02-18T04:43:16.264Z,18.25
2018-02-18T04:44:16.247Z,18.25
2018-02-18T04:45:16.284Z,18.25
2018-02-18T04:46:16.251Z,18.25
2018-02-18T04:47:16.263Z,18
2018-02-18T04:48:16.382Z,18
2018-02-18T04:49:16.249Z,18
2018-02-18T04:50:16.262Z,18
2018-02-18T04:51:16.272Z,18
2018-02-18T04:52:16.265Z,18
2018-02-18T04:53:16.271Z,18
2018-02-18T04:54:16.274Z,18
2018-02-18T04:55:16.234Z,18
2018-02-18T04:56:16.260Z,18.25
2018-02-18T04:57:16.250Z,18.25
2018-02-18T04:58:16.247Z,18.25
2018-02-18T04:59:16.276Z,18.25
2018-02-18T05:00:16.245Z,18.25
2018-02-18T05:01:16.256Z,18.25
2018-02-18T05:02:16.237Z,18.25
2018-02-18T05:03:16.283Z,18.25
2018-02-18T05:04:16.263Z,18.25
2018-02-18T05:05:16.266Z,18.25
2018-02-18T05:06:16.250Z,18.25
2018-02-18T05:07:16.280Z,18.25
2018-02-18T05:08:16.243Z,18.25
2018-02-18T05:09:16.238Z,18.25
2018-02-18T05:10:16.251Z,18.25
2018-02-18T05:11:16.269Z,18.25
2018-02-18T05:12:16.230Z,18.25
2018-02-18T05:13:16.244Z,18.25
2018-02-18T05:14:16.262Z,18.25
2018-02-18T05:15:16.292Z,18.25
2018-02-18T05:16:16.238Z,18.25
2018-02-18T05:17:16.232Z,18.25
2018-02-18T05:18:16.255Z,18.25
2018-02-18T05:19:16.233Z,18.25
2018-02-18T05:20:16.239Z,18.25
2018-02-18T05:21:16.263Z,18.25
2018-02-18T05:22:16.335Z,18.25
2018-02-18T05:23:16.246Z,18.25
2018-02-18T05:24:16.240Z,18.25
2018-02-18T05:25:16.241Z,18.25
2018-02-18T05:26:16.339Z,18.25
2018-02-18T05:27:16.238Z,18.25
2018-02-18T05:28:16.242Z,18.25
2018-02-18T05:29:16.238Z,18.25
2018-02-18T05:30:16.226Z,18.25
2018-02-18T05:31:16.255Z,18.25
2018-02-18T05:32:16.246Z,18.25
2018-02-18T05:33:16.233Z,18.25
2018-02-18T05:34:16.246Z,18.5
2018-02-18T05:35:16.233Z,18.5
2018-02-18T05:36:16.251Z,18.5
2018-02-18T05:37:16.239Z,18.5
2018-02-18T05:38:16.237Z,18.5
2018-02-18T05:39:16.252Z,18.5
2018-02-18T05:40:16.232Z,18.5
2018-02-18T05:41:16.264Z,18.5
2018-02-18T05:42:16.496Z,18.5
2018-02-18T05:43:16.237Z,18.5
2018-02-18T05:44:16.235Z,18.5
2018-02-18T05:45:16.228Z,18.5
2018-02-18T05:46:16.234Z,18.5
2018-02-18T05:47:16.244Z,18.5
2018-02-18T05:48:16.233Z,18.5
2018-02-18T05:49:16.218Z,18.5
2018-02-18T05:50:16.225Z,18.5
2018-02-18T05:51:16.257Z,18.5
2018-02-18T05:52:16.274Z,18.75
2018-02-18T05:53:16.228Z,18.75
2018-02-18T05:54:16.238Z,18.75
2018-02-18T05:55:16.230Z,18.75
2018-02-18T05:56:16.237Z,18.75
2018-02-18T05:57:16.275Z,18.75
2018-02-18T05:58:16.217Z,18.75
2018-02-18T05:59:16.230Z,18.75
2018-02-18T06:00:16.235Z,18.75
2018-02-18T06:01:16.238Z,18.75
2018-02-18T06:02:16.241Z,18.75
2018-02-18T06:03:16.236Z,18.75
2018-02-18T06:04:16.229Z,18.75
2018-02-18T06:05:16.223Z,18.75
2018-02-18T06:06:16.235Z,18.75
2018-02-18T06:07:16.252Z,18.75
2018-02-18T06:08:16.244Z,18.75
2018-02-18T06:09:16.235Z,18.75
2018-02-18T06:10:16.213Z,18.75
2018-02-18T06:11:16.220Z,18.75
2018-02-18T06:12:16.275Z,18.75
2018-02-18T06:13:16.218Z,18.75
2018-02-18T06:14:16.223Z,18.75
2018-02-18T06:15:16.275Z,19
2018-02-18T06:16:16.227Z,18.75
2018-02-18T06:17:16.261Z,19
2018-02-18T06:18:16.219Z,19
2018-02-18T06:19:16.239Z,19
2018-02-18T06:20:16.244Z,19
2018-02-18T06:21:16.231Z,19
2018-02-18T06:22:16.244Z,19
2018-02-18T06:23:16.226Z,19
2018-02-18T06:24:16.211Z,19
2018-02-18T06:25:16.245Z,19
2018-02-18T06:26:16.227Z,19
2018-02-18T06:27:16.226Z,19
2018-02-18T06:28:16.212Z,19
2018-02-18T06:29:16.202Z,19
2018-02-18T06:30:16.236Z,19
2018-02-18T06:31:16.219Z,19
2018-02-18T06:32:16.230Z,19
2018-02-18T06:33:16.244Z,19
2018-02-18T06:34:16.403Z,19
2018-02-18T06:35:16.219Z,19
2018-02-18T06:36:16.249Z,19
2018-02-18T06:37:16.263Z,19
2018-02-18T06:38:16.461Z,19
2018-02-18T06:39:16.240Z,19
2018-02-18T06:40:16.207Z,19
2018-02-18T06:41:16.240Z,19
2018-02-18T06:42:16.217Z,19
2018-02-18T06:43:16.219Z,19
2018-02-18T06:44:16.295Z,19
2018-02-18T06:45:16.223Z,19
2018-02-18T06:46:16.220Z,19
2018-02-18T06:47:16.230Z,19
2018-02-18T06:48:16.205Z,19
2018-02-18T06:49:16.231Z,19.25
2018-02-18T06:50:16.197Z,19
2018-02-18T06:51:16.215Z,19.25
2018-02-18T06:52:16.234Z,19.25
2018-02-18T06:53:16.203Z,19.25
2018-02-18T06:54:16.238Z,19.25
2018-02-18T06:55:16.214Z,19.25
2018-02-18T06:56:16.204Z,19.25
2018-02-18T06:57:16.346Z,19.25
2018-02-18T06:58:16.217Z,19.25
2018-02-18T06:59:16.167Z,19.25
2018-02-18T07:00:16.231Z,19.25
2018-02-18T07:01:16.200Z,19.25
2018-02-18T07:02:16.244Z,19.25
2018-02-18T07:03:16.213Z,19.25
2018-02-18T07:04:16.205Z,19.25
2018-02-18T07:05:16.234Z,19.25
2018-02-18T07:06:16.202Z,19.25
2018-02-18T07:07:16.240Z,19.25
2018-02-18T07:08:16.207Z,19.25
2018-02-18T07:09:16.195Z,19.25
2018-02-18T07:10:16.212Z,19.25
2018-02-18T07:11:16.205Z,19.25
2018-02-18T07:12:16.232Z,19.25
2018-02-18T07:13:16.204Z,19.25
2018-02-18T07:14:16.232Z,19.25
2018-02-18T07:15:16.198Z,19.25
2018-02-18T07:16:16.204Z,19.25
2018-02-18T07:17:16.324Z,19.25
2018-02-18T07:18:16.219Z,19.25
2018-02-18T07:19:16.240Z,19.25
2018-02-18T07:20:16.224Z,19.25
2018-02-18T07:21:16.218Z,19.25
2018-02-18T07:22:16.197Z,19.25
2018-02-18T07:23:16.327Z,19.25
2018-02-18T07:24:16.196Z,19.25
2018-02-18T07:25:16.306Z,19.25
2018-02-18T07:26:16.220Z,19.25
2018-02-18T07:27:16.186Z,19.25
2018-02-18T07:28:16.226Z,19.25
2018-02-18T07:29:16.180Z,19.25
2018-02-18T07:30:16.198Z,19.25
2018-02-18T07:31:16.208Z,19.25
2018-02-18T07:32:16.202Z,19.5
2018-02-18T07:33:16.321Z,19.5
2018-02-18T07:34:16.230Z,19.5
2018-02-18T07:35:16.206Z,19.5
2018-02-18T07:36:16.212Z,19.5
2018-02-18T07:37:16.221Z,19.5
2018-02-18T07:38:16.198Z,19.5
2018-02-18T07:39:16.195Z,19.5
2018-02-18T07:40:16.193Z,19.5
2018-02-18T07:41:16.295Z,19.5
2018-02-18T07:42:16.212Z,19.5
2018-02-18T07:43:16.242Z,19.5
2018-02-18T07:44:16.188Z,19.5
2018-02-18T07:45:16.197Z,19.5
2018-02-18T07:46:16.186Z,19.5
2018-02-18T07:47:16.226Z,19.5
2018-02-18T07:48:16.308Z,19.5
2018-02-18T07:49:16.248Z,19.5
2018-02-18T07:50:16.191Z,19.5
2018-02-18T07:51:16.184Z,19.5
2018-02-18T07:52:16.180Z,19.5
2018-02-18T07:53:16.312Z,19.5
2018-02-18T07:54:16.177Z,19.5
2018-02-18T07:55:16.192Z,19.5
2018-02-18T07:56:16.186Z,19.5
2018-02-18T07:57:16.231Z,19.5
2018-02-18T07:58:16.207Z,19.5
2018-02-18T07:59:16.198Z,19.5
2018-02-18T08:00:16.189Z,19.5
2018-02-18T08:01:16.186Z,19.5
2018-02-18T08:02:16.188Z,19.5
2018-02-18T08:03:16.201Z,19.5
2018-02-18T08:04:16.454Z,19.5
2018-02-18T08:05:16.176Z,19.5
2018-02-18T08:06:16.344Z,19.5
2018-02-18T08:07:16.190Z,19.5
2018-02-18T08:08:16.187Z,19.5
2018-02-18T08:09:16.205Z,19.5
2018-02-18T08:10:16.194Z,19.5
2018-02-18T08:11:16.179Z,19.5
2018-02-18T08:12:16.194Z,19.5
2018-02-18T08:13:16.185Z,19.5
2018-02-18T08:14:16.210Z,19.5
2018-02-18T08:15:16.195Z,19.5
2018-02-18T08:16:16.206Z,19.5
2018-02-18T08:17:16.187Z,19.75
2018-02-18T08:18:16.184Z,19.5
2018-02-18T08:19:16.188Z,19.5
2018-02-18T08:20:16.179Z,19.75
2018-02-18T08:21:16.171Z,19.75
2018-02-18T08:22:16.184Z,19.75
2018-02-18T08:23:16.176Z,19.75
2018-02-18T08:24:16.217Z,19.75
2018-02-18T08:25:16.185Z,19.75
2018-02-18T08:26:16.181Z,19.75
2018-02-18T08:27:16.145Z,19.75
2018-02-18T08:28:16.173Z,19.75
2018-02-18T08:29:16.441Z,19.75
2018-02-18T08:30:16.172Z,19.75
2018-02-18T08:31:16.182Z,19.75
2018-02-18T08:32:16.212Z,19.75
2018-02-18T08:33:16.184Z,19.75
2018-02-18T08:34:16.223Z,19.75
2018-02-18T08:35:16.209Z,19.75
2018-02-18T08:36:16.163Z,19.75
2018-02-18T08:37:16.259Z,19.75
2018-02-18T08:38:16.174Z,19.75
2018-02-18T08:39:16.194Z,19.75
2018-02-18T08:40:16.178Z,19.75
2018-02-18T08:41:16.211Z,19.75
2018-02-18T08:42:16.164Z,19.75
2018-02-18T08:43:16.202Z,19.75
2018-02-18T08:44:16.237Z,19.75
2018-02-18T08:45:16.242Z,19.75
2018-02-18T08:46:16.181Z,19.75
2018-02-18T08:47:16.166Z,19.75
2018-02-18T08:48:16.177Z,19.75
2018-02-18T08:49:16.196Z,19.75
2018-02-18T08:50:16.167Z,19.75
2018-02-18T08:51:16.181Z,19.75
2018-02-18T08:52:16.173Z,19.75
2018-02-18T08:53:16.195Z,19.75
2018-02-18T08:54:16.202Z,19.75
2018-02-18T08:55:16.186Z,19.75
2018-02-18T08:56:16.232Z,19.75
2018-02-18T08:57:16.240Z,19.75
2018-02-18T08:58:16.252Z,19.75
2018-02-18T08:59:16.207Z,19.75
2018-02-18T09:00:16.200Z,19.75
2018-02-18T09:01:16.181Z,19.75
2018-02-18T09:02:16.177Z,19.75
2018-02-18T09:03:16.184Z,19.75
2018-02-18T09:04:16.251Z,19.75
2018-02-18T09:05:16.178Z,19.75
2018-02-18T09:06:16.348Z,19.75
2018-02-18T09:07:16.203Z,19.75
2018-02-18T09:08:16.241Z,19.75
2018-02-18T09:09:16.244Z,19.75
2018-02-18T09:10:16.265Z,19.75
2018-02-18T09:11:16.252Z,19.75
2018-02-18T09:12:16.178Z,19.75
2018-02-18T09:13:16.188Z,19.75
2018-02-18T09:14:16.224Z,19.75
2018-02-18T09:15:16.261Z,19.75
2018-02-18T09:16:16.252Z,19.75
2018-02-18T09:17:16.273Z,19.75
2018-02-18T09:18:16.200Z,19.75
2018-02-18T09:19:16.213Z,19.75
2018-02-18T09:20:16.226Z,19.75
2018-02-18T09:21:16.237Z,19.75
2018-02-18T09:22:16.185Z,20
2018-02-18T09:23:16.254Z,20
2018-02-18T09:24:16.392Z,20
2018-02-18T09:25:16.167Z,20
2018-02-18T09:26:16.168Z,20
2018-02-18T09:27:16.265Z,20
2018-02-18T09:28:16.261Z,20
2018-02-18T09:29:16.199Z,20
2018-02-18T09:30:16.190Z,20
2018-02-18T09:31:16.199Z,20
2018-02-18T09:32:16.225Z,20
2018-02-18T09:33:16.200Z,20
2018-02-18T09:34:16.156Z,20
2018-02-18T09:35:16.172Z,20
2018-02-18T09:36:16.180Z,20
2018-02-18T09:37:16.208Z,20
2018-02-18T09:38:16.218Z,20
2018-02-18T09:39:16.187Z,20
2018-02-18T09:40:16.155Z,20
2018-02-18T09:41:16.154Z,20
2018-02-18T09:42:16.152Z,20
2018-02-18T09:43:16.165Z,20
2018-02-18T09:44:16.201Z,20
2018-02-18T09:45:16.161Z,20
2018-02-18T09:46:16.157Z,20
2018-02-18T09:47:16.148Z,20
2018-02-18T09:48:16.153Z,20
2018-02-18T09:49:16.534Z,20
2018-02-18T09:50:16.166Z,20
2018-02-18T09:51:16.184Z,20
2018-02-18T09:52:16.372Z,20
2018-02-18T09:53:16.160Z,20
2018-02-18T09:54:16.185Z,20
2018-02-18T09:55:16.163Z,20.25
2018-02-18T09:56:16.157Z,20
2018-02-18T09:57:16.152Z,20.25
2018-02-18T09:58:16.163Z,20.25
2018-02-18T09:59:16.183Z,20.25
2018-02-18T10:00:16.178Z,20.25
2018-02-18T10:01:16.165Z,20.25
2018-02-18T10:02:16.208Z,20.25
2018-02-18T10:03:16.184Z,20.25
2018-02-18T10:04:16.180Z,20.25
2018-02-18T10:05:16.176Z,20.25
2018-02-18T10:06:16.200Z,20.25
2018-02-18T10:07:16.218Z,20.25
2018-02-18T10:08:16.171Z,20.25
2018-02-18T10:09:16.147Z,20.25
2018-02-18T10:10:16.143Z,20.25
2018-02-18T10:11:16.179Z,20.25
2018-02-18T10:12:16.213Z,20.25
2018-02-18T10:13:16.160Z,20.25
2018-02-18T10:14:16.359Z,20.25
2018-02-18T10:15:16.168Z,20.25
2018-02-18T10:16:16.188Z,20.25
2018-02-18T10:17:16.173Z,20.25
2018-02-18T10:18:16.201Z,20.25
2018-02-18T10:19:16.163Z,20.25
2018-02-18T10:20:16.194Z,20.25
2018-02-18T10:21:16.193Z,20.25
2018-02-18T10:22:16.196Z,20.25
2018-02-18T10:23:16.190Z,20.25
2018-02-18T10:24:16.558Z,20.25
2018-02-18T10:25:16.417Z,20.25
2018-02-18T10:26:16.378Z,20.25
2018-02-18T10:27:16.233Z,20.25
2018-02-18T10:28:16.167Z,20.25
2018-02-18T10:29:16.161Z,20.25
2018-02-18T10:30:16.130Z,20.25
2018-02-18T10:31:16.142Z,20.25
2018-02-18T10:32:16.247Z,20.25
2018-02-18T10:33:16.163Z,20.25
2018-02-18T10:34:16.189Z,20.25
2018-02-18T10:35:16.130Z,20.25
2018-02-18T10:36:16.210Z,20.25
2018-02-18T10:37:16.214Z,20.25
2018-02-18T10:38:16.155Z,20.25
2018-02-18T10:39:16.156Z,20.25
2018-02-18T10:40:16.327Z,20.25
2018-02-18T10:41:16.139Z,20.25
2018-02-18T10:42:16.154Z,20.25
2018-02-18T10:43:16.114Z,20.25
2018-02-18T10:44:16.136Z,20.25
2018-02-18T10:45:16.186Z,20.25
2018-02-18T10:46:16.136Z,20.25
2018-02-18T10:47:16.147Z,20.25
2018-02-18T10:48:16.208Z,20.25
2018-02-18T10:49:16.127Z,20.25
2018-02-18T10:50:16.138Z,20.25
2018-02-18T10:51:16.171Z,20.25
2018-02-18T10:52:16.133Z,20.25
2018-02-18T10:53:16.152Z,20.25
2018-02-18T10:54:16.286Z,20.25
2018-02-18T10:55:16.138Z,20.5
2018-02-18T10:56:16.171Z,20.5
2018-02-18T10:57:16.144Z,20.5
2018-02-18T10:58:16.415Z,20.5
2018-02-18T10:59:16.113Z,20.5
2018-02-18T11:00:16.134Z,20.5
2018-02-18T11:01:16.125Z,20.5
2018-02-18T11:02:16.138Z,20.5
2018-02-18T11:03:16.184Z,20.5
2018-02-18T11:04:16.124Z,20.5
2018-02-18T11:05:16.138Z,20.5
2018-02-18T11:06:16.121Z,20.5
2018-02-18T11:07:16.146Z,20.5
2018-02-18T11:08:16.152Z,20.5
2018-02-18T11:09:16.123Z,20.5
2018-02-18T11:10:16.130Z,20.5
2018-02-18T11:11:16.135Z,20.5
2018-02-18T11:12:16.132Z,20.5
2018-02-18T11:13:16.155Z,20.5
2018-02-18T11:14:16.128Z,20.5
2018-02-18T11:15:16.123Z,20.5
2018-02-18T11:16:16.080Z,20.5
2018-02-18T11:17:16.129Z,20.5
2018-02-18T11:18:16.222Z,20.5
2018-02-18T11:19:16.130Z,20.5
2018-02-18T11:20:16.121Z,20.5
2018-02-18T11:21:16.162Z,20.5
2018-02-18T11:22:16.135Z,20.5
2018-02-18T11:23:16.155Z,20.5
2018-02-18T11:24:16.339Z,20.5
2018-02-18T11:25:16.134Z,20.5
2018-02-18T11:26:16.130Z,20.5
2018-02-18T11:27:16.131Z,20.5
2018-02-18T11:28:16.132Z,20.5
2018-02-18T11:29:16.133Z,20.5
2018-02-18T11:30:16.228Z,20.5
2018-02-18T11:31:16.180Z,20.5
2018-02-18T11:32:16.118Z,20.5
2018-02-18T11:33:16.172Z,20.5
2018-02-18T11:34:16.147Z,20.5
2018-02-18T11:35:16.144Z,20.5
2018-02-18T11:36:16.236Z,20.5
2018-02-18T11:37:16.127Z,20.5
2018-02-18T11:38:16.079Z,20.5
2018-02-18T11:39:16.120Z,20.5
2018-02-18T11:40:16.168Z,20.5
2018-02-18T11:41:16.145Z,20.5
2018-02-18T11:42:16.114Z,20.5
2018-02-18T11:43:16.110Z,20.5
2018-02-18T11:44:16.122Z,20.5
2018-02-18T11:45:16.167Z,20.5
2018-02-18T11:46:16.141Z,20.75
2018-02-18T11:47:16.137Z,20.75
2018-02-18T11:48:16.152Z,20.75
2018-02-18T11:49:16.116Z,20.75
2018-02-18T11:50:16.125Z,20.75
2018-02-18T11:51:16.138Z,20.75
2018-02-18T11:52:16.217Z,20.75
2018-02-18T11:53:16.109Z,20.75
2018-02-18T11:54:16.403Z,20.75
2018-02-18T11:55:16.118Z,20.75
2018-02-18T11:56:16.112Z,20.75
2018-02-18T11:57:16.139Z,20.75
2018-02-18T11:58:16.110Z,20.75
2018-02-18T11:59:16.165Z,20.75
2018-02-18T12:00:16.113Z,20.5
2018-02-18T12:01:16.114Z,20.5
2018-02-18T12:02:16.127Z,20.5
2018-02-18T12:03:16.122Z,20.5
2018-02-18T12:04:16.127Z,20.5
2018-02-18T12:05:16.096Z,20.5
2018-02-18T12:06:16.139Z,20.5
2018-02-18T12:07:16.100Z,20.5
2018-02-18T12:08:16.140Z,20.5
2018-02-18T12:09:16.201Z,20.5
2018-02-18T12:10:16.104Z,20.5
2018-02-18T12:11:16.152Z,20.5
2018-02-18T12:12:16.108Z,20.5
2018-02-18T12:13:16.112Z,20.5
2018-02-18T12:14:16.143Z,20.5
2018-02-18T12:15:16.196Z,20.5
2018-02-18T12:16:16.100Z,20.5
2018-02-18T12:17:16.108Z,20.5
2018-02-18T12:18:16.133Z,20.5
2018-02-18T12:19:16.176Z,20.5
2018-02-18T12:20:16.126Z,20.5
2018-02-18T12:21:16.103Z,20.5
2018-02-18T12:22:16.108Z,20.5
2018-02-18T12:23:16.100Z,20.5
2018-02-18T12:24:16.160Z,20.5
2018-02-18T12:25:16.095Z,20.5
2018-02-18T12:26:16.098Z,20.5
2018-02-18T12:27:16.129Z,20.5
2018-02-18T12:28:16.093Z,20.5
2018-02-18T12:29:16.131Z,20.5
2018-02-18T12:30:16.153Z,20.5
2018-02-18T12:31:16.158Z,20.5
2018-02-18T12:32:16.133Z,20.5
2018-02-18T12:33:16.204Z,20.5
2018-02-18T12:34:16.346Z,20.5
2018-02-18T12:35:16.115Z,20.5
2018-02-18T12:36:16.149Z,20.5
2018-02-18T12:37:16.088Z,20.5
2018-02-18T12:38:16.100Z,20.5
2018-02-18T12:39:16.095Z,20.5
2018-02-18T12:40:16.114Z,20.5
2018-02-18T12:41:16.114Z,20.5
2018-02-18T12:42:16.111Z,20.5
2018-02-18T12:43:16.108Z,20.5
2018-02-18T12:44:16.093Z,20.5
2018-02-18T12:45:16.092Z,20.5
2018-02-18T12:46:16.128Z,20.5
2018-02-18T12:47:16.117Z,20.5
2018-02-18T12:48:16.150Z,20.5
2018-02-18T12:49:16.148Z,20.5
2018-02-18T12:50:16.085Z,20.5
2018-02-18T12:51:16.221Z,20.5
2018-02-18T12:52:16.077Z,20.5
2018-02-18T12:53:16.133Z,20.5
2018-02-18T12:54:16.088Z,20.5
2018-02-18T12:55:16.090Z,20.5
2018-02-18T12:56:16.082Z,20.5
2018-02-18T12:57:16.080Z,20.5
2018-02-18T12:58:16.096Z,20.5
2018-02-18T12:59:16.074Z,20.5
2018-02-18T13:00:16.278Z,20.5
2018-02-18T13:01:16.121Z,20.5
2018-02-18T13:02:16.089Z,20.5
2018-02-18T13:03:16.094Z,20.5
2018-02-18T13:04:16.079Z,20.5
2018-02-18T13:05:16.097Z,20.5
2018-02-18T13:06:16.095Z,20.5
2018-02-18T13:07:16.087Z,20.5
2018-02-18T13:08:16.107Z,20.5
2018-02-18T13:09:16.112Z,20.5
2018-02-18T13:10:16.150Z,20.5
2018-02-18T13:11:16.080Z,20.5
2018-02-18T13:12:16.122Z,20.5
2018-02-18T13:13:16.135Z,20.5